createdAt,value
2022-12-01T00:00:55.353Z,100865.66
2022-12-01T00:06:00.640Z,100879.59
2022-12-01T00:11:06.954Z,100876.09
2022-12-01T00:16:13.329Z,100878.66
2022-12-01T00:21:16.478Z,100887.44
2022-12-01T00:26:19.029Z,100882.16
2022-12-01T00:31:20.706Z,100891.72
2022-12-01T00:36:22.658Z,100890.44
2022-12-01T00:41:25.500Z,100895.72
2022-12-01T00:46:26.843Z,100888.72
2022-12-01T00:51:28.286Z,100900.47
2022-12-01T00:56:29.860Z,100898.09
2022-12-01T01:01:31.174Z,100889.03
2022-12-01T01:06:32.738Z,100895.63
2022-12-01T01:11:34.033Z,100904.59
2022-12-01T01:16:35.693Z,100889.91
2022-12-01T01:21:37.313Z,100899.94
2022-12-01T01:26:38.647Z,100913.41
2022-12-01T01:31:40.052Z,100899.75
2022-12-01T01:36:41.322Z,100904.88
2022-12-01T01:41:42.773Z,100881.56
2022-12-01T01:46:44.040Z,100920.94
2022-12-01T01:51:50.180Z,100927.09
2022-12-01T01:56:52.802Z,100928.78
2022-12-01T02:02:05.979Z,100934.09
2022-12-01T02:07:08.632Z,100929.66
2022-12-01T02:12:19.142Z,100934.63
2022-12-01T02:18:08.597Z,100922.16
2022-12-01T02:23:35.528Z,100926.06
2022-12-01T02:28:48.329Z,100929.41
2022-12-01T02:33:56.245Z,100923.59
2022-12-01T02:39:17.725Z,100904.88
2022-12-01T02:44:27.665Z,100915.13
2022-12-01T02:49:34.603Z,100925.72
2022-12-01T02:54:37.388Z,100925.72
2022-12-01T02:59:42.279Z,100924.72
2022-12-01T03:05:02.450Z,100922.56
2022-12-01T03:10:19.743Z,100927.28
2022-12-01T03:15:32.887Z,100914.97
2022-12-01T03:20:43.685Z,100922.16
2022-12-01T03:25:48.385Z,100891.19
2022-12-01T03:30:54.015Z,100913.25
2022-12-01T03:35:59.889Z,100898.09
2022-12-01T03:41:08.952Z,100904.06
2022-12-01T03:46:32.904Z,100913.78
2022-12-01T03:51:46.574Z,100916.69
2022-12-01T03:56:59.391Z,100933.72
2022-12-01T04:02:00.755Z,100927.75
2022-12-01T04:07:02.104Z,100930.50
2022-12-01T04:12:22.212Z,100913.81
2022-12-01T04:17:24.731Z,100929.50
2022-12-01T04:22:26.317Z,100916.44
2022-12-01T04:27:27.754Z,100931.66
2022-12-01T04:32:29.104Z,100936.88
2022-12-01T04:37:30.366Z,100936.06
2022-12-01T04:42:31.974Z,100936.78
2022-12-01T04:47:33.302Z,100934.91
2022-12-01T04:52:37.100Z,100933.19
2022-12-01T04:57:39.403Z,100925.88
2022-12-01T05:02:43.207Z,100919.03
2022-12-01T05:07:45.022Z,100928.69
2022-12-01T05:12:46.459Z,100922.00
2022-12-01T05:17:47.735Z,100934.50
2022-12-01T05:23:05.954Z,100932.19
2022-12-01T05:28:07.868Z,100935.16
2022-12-01T05:33:09.221Z,100937.97
2022-12-01T05:38:10.988Z,100955.00
2022-12-01T05:43:12.248Z,100928.72
2022-12-01T05:48:13.516Z,100930.75
2022-12-01T05:53:15.238Z,100946.66
2022-12-01T05:58:16.590Z,100955.00
2022-12-01T06:03:17.908Z,100951.81
2022-12-01T06:08:19.291Z,100950.19
2022-12-01T06:13:20.600Z,100947.63
2022-12-01T06:18:21.848Z,100961.84
2022-12-01T06:23:27.535Z,100958.78
2022-12-01T06:28:30.343Z,100972.50
2022-12-01T06:33:32.261Z,100977.22
2022-12-01T06:38:35.316Z,100979.78
2022-12-01T06:43:40.178Z,100983.22
2022-12-01T06:48:42.534Z,100990.47
2022-12-01T06:53:43.838Z,100989.38
2022-12-01T06:58:45.242Z,100993.41
2022-12-01T07:03:48.829Z,100987.69
2022-12-01T07:08:50.091Z,100988.63
2022-12-01T07:13:55.709Z,100991.41
2022-12-01T07:18:57.050Z,101010.00
2022-12-01T07:23:58.464Z,101007.84
2022-12-01T07:28:59.762Z,101008.53
2022-12-01T07:34:01.191Z,101021.50
2022-12-01T07:39:07.476Z,101025.06
2022-12-01T07:44:11.622Z,101011.00
2022-12-01T07:49:15.330Z,101017.69
2022-12-01T07:54:17.591Z,101036.34
2022-12-01T07:59:18.941Z,101021.09
2022-12-01T08:04:20.276Z,101025.81
2022-12-01T08:09:21.581Z,101029.91
2022-12-01T08:14:22.943Z,101043.28
2022-12-01T08:19:25.839Z,101048.31
2022-12-01T08:24:27.208Z,101055.88
2022-12-01T08:29:28.577Z,101053.19
2022-12-01T08:34:29.958Z,101049.25
2022-12-01T08:39:31.278Z,101053.84
2022-12-01T08:44:32.923Z,101038.38
2022-12-01T08:49:34.216Z,101041.81
2022-12-01T08:54:35.560Z,101052.25
2022-12-01T08:59:37.533Z,101059.38
2022-12-01T09:04:38.839Z,101045.00
2022-12-01T09:09:40.123Z,101056.91
2022-12-01T09:14:47.948Z,101055.09
2022-12-01T09:19:49.585Z,101054.53
2022-12-01T09:24:51.020Z,101054.88
2022-12-01T09:29:52.276Z,101043.56
2022-12-01T09:34:53.548Z,101067.69
2022-12-01T09:39:55.730Z,101053.91
2022-12-01T09:45:00.809Z,101057.88
2022-12-01T09:50:05.403Z,101048.44
2022-12-01T09:55:12.868Z,101025.50
2022-12-01T10:00:18.336Z,101034.78
2022-12-01T10:05:26.641Z,101021.06
2022-12-01T10:10:32.938Z,101026.19
2022-12-01T10:15:49.449Z,101013.06
2022-12-01T10:20:54.532Z,101005.56
2022-12-01T10:25:59.283Z,101002.44
2022-12-01T10:31:06.907Z,100975.97
2022-12-01T10:36:10.104Z,100993.56
2022-12-01T10:41:14.699Z,100998.88
2022-12-01T10:46:22.076Z,100989.94
2022-12-01T10:51:24.673Z,100987.19
2022-12-01T10:56:26.474Z,100985.00
2022-12-01T11:01:34.645Z,100979.22
2022-12-01T11:06:37.457Z,100980.91
2022-12-01T11:11:40.672Z,100973.47
2022-12-01T11:16:44.718Z,100969.97
2022-12-01T11:21:57.904Z,100962.97
2022-12-01T11:27:00.617Z,100965.72
2022-12-01T11:32:26.075Z,100969.69
2022-12-01T11:37:38.391Z,100957.78
2022-12-01T11:42:41.262Z,100943.69
2022-12-01T11:48:20.964Z,100948.53
2022-12-01T11:53:31.795Z,100954.19
2022-12-01T11:58:33.098Z,100947.97
2022-12-01T12:03:48.056Z,100931.50
2022-12-01T12:09:18.419Z,100951.03
2022-12-01T12:14:38.139Z,100929.69
2022-12-01T12:20:07.784Z,100925.31
2022-12-01T12:25:25.140Z,100933.44
2022-12-01T12:30:30.072Z,100927.22
2022-12-01T12:35:47.356Z,100896.66
2022-12-01T12:40:57.790Z,100914.88
2022-12-01T12:46:38.043Z,100890.50
2022-12-01T12:51:44.679Z,100898.09
2022-12-01T12:56:51.267Z,100899.78
2022-12-01T13:02:04.102Z,100905.00
2022-12-01T13:07:13.888Z,100892.06
2022-12-01T13:12:30.453Z,100894.16
2022-12-01T13:17:38.437Z,100895.97
2022-12-01T13:22:40.481Z,100908.19
2022-12-01T13:27:44.064Z,100895.56
2022-12-01T13:32:46.088Z,100888.13
2022-12-01T13:37:47.888Z,100879.22
2022-12-01T13:43:08.539Z,100887.50
2022-12-01T13:48:47.133Z,100892.66
2022-12-01T13:54:05.881Z,100889.28
2022-12-01T14:00:02.889Z,100885.59
2022-12-01T14:05:22.521Z,100889.63
2022-12-01T14:10:27.388Z,100883.81
2022-12-01T14:15:40.110Z,100886.25
2022-12-01T14:20:46.696Z,100892.91
2022-12-01T14:26:10.513Z,100882.13
2022-12-01T14:31:12.324Z,100873.34
2022-12-01T14:36:22.759Z,100869.09
2022-12-01T14:41:28.443Z,100874.31
2022-12-01T14:46:38.603Z,100871.53
2022-12-01T14:51:44.240Z,100877.78
2022-12-01T14:56:47.980Z,100877.84
2022-12-01T15:01:52.736Z,100871.28
2022-12-01T15:06:57.228Z,100863.06
2022-12-01T15:12:01.581Z,100865.47
2022-12-01T15:17:05.446Z,100867.56
2022-12-01T15:22:17.717Z,100866.22
2022-12-01T15:27:31.186Z,100867.25
2022-12-01T15:32:37.736Z,100865.91
2022-12-01T15:37:44.251Z,100874.13
2022-12-01T15:43:00.871Z,100869.00
2022-12-01T15:48:15.429Z,100871.19
2022-12-01T15:53:24.454Z,100873.91
2022-12-01T15:58:32.859Z,100875.19
2022-12-01T16:03:51.873Z,100871.44
2022-12-01T16:08:56.789Z,100876.56
2022-12-01T16:14:01.085Z,100874.72
2022-12-01T16:19:24.007Z,100871.47
2022-12-01T16:24:35.759Z,100876.78
2022-12-01T16:30:19.004Z,100880.53
2022-12-01T16:35:24.828Z,100879.84
2022-12-01T16:40:26.575Z,100873.63
2022-12-01T16:45:28.137Z,100855.00
2022-12-01T16:50:29.404Z,100893.34
2022-12-01T16:55:58.483Z,100895.72
2022-12-01T17:00:59.930Z,100897.63
2022-12-01T17:06:03.030Z,100891.53
2022-12-01T17:11:06.600Z,100873.69
2022-12-01T17:16:15.247Z,100874.19
2022-12-01T17:21:19.345Z,100883.94
2022-12-01T17:26:21.797Z,100883.94
2022-12-01T17:31:23.175Z,100884.09
2022-12-01T17:36:24.438Z,100882.28
2022-12-01T17:41:32.068Z,100872.13
2022-12-01T17:46:33.588Z,100878.88
2022-12-01T17:51:36.376Z,100881.09
2022-12-01T17:56:37.731Z,100877.75
2022-12-01T18:01:41.164Z,100885.13
2022-12-01T18:06:42.889Z,100888.88
2022-12-01T18:11:44.259Z,100892.28
2022-12-01T18:16:45.788Z,100889.97
2022-12-01T18:21:47.161Z,100880.00
2022-12-01T18:26:48.623Z,100888.34
2022-12-01T18:31:49.970Z,100891.34
2022-12-01T18:36:51.362Z,100902.31
2022-12-01T18:41:52.779Z,100899.75
2022-12-01T18:46:54.189Z,100885.75
2022-12-01T18:51:55.655Z,100895.84
2022-12-01T18:56:58.809Z,100883.91
2022-12-01T19:02:00.219Z,100887.00
2022-12-01T19:07:01.576Z,100867.00
2022-12-01T19:12:02.995Z,100882.28
2022-12-01T19:17:04.401Z,100868.28
2022-12-01T19:22:05.808Z,100859.25
2022-12-01T19:27:07.138Z,100867.34
2022-12-01T19:32:08.538Z,100875.53
2022-12-01T19:37:10.802Z,100869.72
2022-12-01T19:42:12.050Z,100878.00
2022-12-01T19:47:15.551Z,100856.00
2022-12-01T19:52:20.456Z,100874.03
2022-12-01T19:57:21.749Z,100870.59
2022-12-01T20:02:28.959Z,100859.00
2022-12-01T20:07:30.773Z,100868.09
2022-12-01T20:12:33.537Z,100874.94
2022-12-01T20:17:36.546Z,100868.66
2022-12-01T20:22:38.055Z,100861.28
2022-12-01T20:27:39.580Z,100861.56
2022-12-01T20:32:40.941Z,100863.59
2022-12-01T20:37:42.300Z,100867.19
2022-12-01T20:42:43.555Z,100853.38
2022-12-01T20:47:44.895Z,100860.50
2022-12-01T20:52:46.156Z,100862.72
2022-12-01T20:57:47.399Z,100858.41
2022-12-01T21:02:49.244Z,100840.56
2022-12-01T21:07:50.693Z,100850.81
2022-12-01T21:13:18.415Z,100851.97
2022-12-01T21:18:24.828Z,100854.88
2022-12-01T21:23:27.758Z,100861.63
2022-12-01T21:28:29.779Z,100844.81
2022-12-01T21:33:33.477Z,100859.13
2022-12-01T21:38:34.735Z,100856.66
2022-12-01T21:43:38.526Z,100863.41
2022-12-01T21:48:40.062Z,100842.16
2022-12-01T21:53:41.435Z,100864.41
2022-12-01T21:58:43.754Z,100854.78
2022-12-01T22:03:46.171Z,100851.44
2022-12-01T22:08:50.587Z,100856.22
2022-12-01T22:13:51.783Z,100847.34
2022-12-01T22:18:55.816Z,100850.03
2022-12-01T22:24:09.011Z,100853.13
2022-12-01T22:29:35.783Z,100818.97
2022-12-01T22:34:37.511Z,100850.25
2022-12-01T22:39:40.265Z,100847.69
2022-12-01T22:44:44.808Z,100830.06
2022-12-01T22:49:46.110Z,100839.47
2022-12-01T22:54:50.065Z,100838.53
2022-12-01T22:59:52.210Z,100821.38
2022-12-01T23:04:58.601Z,100810.41
2022-12-01T23:10:17.089Z,100829.91
2022-12-01T23:15:37.581Z,100806.84
2022-12-01T23:20:40.365Z,100804.13
2022-12-01T23:25:43.017Z,100808.56
2022-12-01T23:30:47.430Z,100808.91
2022-12-01T23:35:57.717Z,100801.78
2022-12-01T23:41:01.339Z,100803.72
2022-12-01T23:46:07.397Z,100792.69
2022-12-01T23:51:25.155Z,100786.72
2022-12-01T23:56:28.144Z,100774.19
